Time;durP1;ratioP1;P1;durP2;ratioP2;P2;SDS_P1;SDS_P2;PMS_P1;PMS_P2;Temp;Humidity;BMP_temperature;BMP_pressure;BME280_temperature;BME280_humidity;BME280_pressure;Samples;Min_cycle;Max_cycle;Signal;HPM_P1;HPM_P2
2022/09/08 00:03:35;;;;;;;9.23;2.50;;;;;;;18.84;100.00;99870.56;8306960;28;20041;-86
2022/09/08 00:07:38;;;;;;;6.38;2.40;;;;;;;18.84;100.00;99842.31;8325115;28;20060;-86
2022/09/08 00:11:40;;;;;;;4.78;2.88;;;;;;;18.92;100.00;99829.28;8321012;28;20087;-86
2022/09/08 00:15:40;;;;;;;4.63;2.38;;;;;;;18.91;100.00;99819.34;8325999;28;20029;-86
2022/09/08 00:19:41;;;;;;;6.20;2.80;;;;;;;19.08;100.00;99845.28;8322169;28;20044;-86
2022/09/08 00:23:41;;;;;;;5.15;2.30;;;;;;;18.90;100.00;99798.50;8319957;28;20037;-87
2022/09/08 00:27:42;;;;;;;5.90;2.67;;;;;;;19.08;100.00;99815.16;8339337;28;20401;-86
2022/09/08 00:31:42;;;;;;;4.07;2.42;;;;;;;19.15;100.00;99835.16;8335640;28;20120;-86
2022/09/08 00:35:44;;;;;;;6.50;2.65;;;;;;;19.17;100.00;99816.63;8357835;28;20057;-86
2022/09/08 00:39:44;;;;;;;5.65;2.47;;;;;;;19.35;100.00;99803.13;8320654;28;20566;-86
2022/09/08 00:43:48;;;;;;;7.00;2.40;;;;;;;19.17;100.00;99782.88;8305777;28;20029;-84
2022/09/08 00:47:58;;;;;;;6.18;2.63;;;;;;;19.20;100.00;99798.88;8330440;28;20406;-83
2022/09/08 00:51:59;;;;;;;5.63;2.72;;;;;;;19.15;100.00;99799.53;8328332;28;20037;-84
2022/09/08 00:56:05;;;;;;;7.13;3.22;;;;;;;18.90;100.00;99754.69;8332053;28;20037;-85
2022/09/08 01:00:09;;;;;;;6.03;3.00;;;;;;;19.00;100.00;99782.47;8326017;28;20579;-85
2022/09/08 01:04:10;;;;;;;8.00;3.27;;;;;;;19.07;100.00;99794.28;8317562;28;20403;-85
2022/09/08 01:12:54;;;;;;;6.82;2.97;;;;;;;19.18;100.00;99785.41;8297519;28;20397;-51
2022/09/08 01:16:55;;;;;;;3.90;2.83;;;;;;;19.21;100.00;99784.13;8287064;28;20160;-49
2022/09/08 01:21:06;;;;;;;5.33;2.93;;;;;;;19.22;100.00;99786.66;8286959;28;20038;-50
2022/09/08 01:29:26;;;;;;;6.80;2.67;;;;;;;19.34;100.00;99800.59;8284304;28;21287;-49
2022/09/08 01:33:27;;;;;;;5.20;2.80;;;;;;;19.19;100.00;99809.00;8255880;28;20411;-51
2022/09/08 01:37:27;;;;;;;5.65;2.65;;;;;;;19.13;100.00;99804.38;8254625;28;20035;-51
2022/09/08 01:41:28;;;;;;;7.10;3.35;;;;;;;19.13;100.00;99803.56;8254138;28;20053;-49
2022/09/08 01:45:28;;;;;;;4.50;2.85;;;;;;;19.00;100.00;99804.38;8248316;28;20556;-49
2022/09/08 01:49:29;;;;;;;4.60;3.33;;;;;;;18.89;100.00;99816.00;8253143;28;20099;-52
2022/09/08 01:53:29;;;;;;;8.13;3.78;;;;;;;18.99;100.00;99802.72;8255492;28;20329;-50
2022/09/08 01:57:30;;;;;;;3.92;3.20;;;;;;;19.03;100.00;99814.94;8256167;28;20443;-50
2022/09/08 02:01:30;;;;;;;5.55;2.85;;;;;;;18.79;100.00;99809.25;8284831;28;20034;-53
2022/09/08 02:05:30;;;;;;;6.18;2.97;;;;;;;18.52;100.00;99813.88;8285329;28;20030;-52
2022/09/08 02:09:31;;;;;;;9.40;4.35;;;;;;;18.56;100.00;99826.09;8256683;28;20093;-50
2022/09/08 02:13:32;;;;;;;11.27;5.07;;;;;;;18.64;100.00;99825.91;8281443;28;20034;-50
2022/09/08 02:17:32;;;;;;;8.52;4.63;;;;;;;18.71;100.00;99824.00;8284342;28;20041;-51
2022/09/08 02:21:33;;;;;;;13.50;5.90;;;;;;;18.67;100.00;99833.66;8317643;28;20057;-51
2022/09/08 02:25:33;;;;;;;8.98;4.65;;;;;;;18.58;100.00;99829.47;8317495;28;20044;-51
2022/09/08 02:29:33;;;;;;;9.75;4.85;;;;;;;18.50;100.00;99846.09;8296816;28;20088;-53
2022/09/08 02:33:34;;;;;;;13.57;4.88;;;;;;;18.50;100.00;99850.69;8281594;28;20038;-51
2022/09/08 02:37:34;;;;;;;11.07;5.28;;;;;;;18.36;100.00;99838.84;8281379;28;20034;-51
2022/09/08 02:41:34;;;;;;;9.43;4.93;;;;;;;18.30;100.00;99836.13;8264409;28;20031;-50
2022/09/08 02:45:39;;;;;;;6.75;4.05;;;;;;;18.24;100.00;99840.50;8263964;28;20044;-52
2022/09/08 02:49:39;;;;;;;;;;;;;;;18.20;100.00;99844.72;8253007;28;20046;-50
2022/09/08 02:53:41;;;;;;;9.60;4.93;;;;;;;18.19;100.00;99837.56;8232646;28;19917;-51
2022/09/08 02:57:41;;;;;;;11.80;5.50;;;;;;;18.23;100.00;99827.88;8236616;28;20034;-49
2022/09/08 03:01:43;;;;;;;9.60;5.75;;;;;;;18.27;100.00;99829.13;8261965;28;20038;-49
2022/09/08 03:05:43;;;;;;;11.68;6.45;;;;;;;18.24;100.00;99829.56;8262073;28;20137;-48
2022/09/08 03:09:44;;;;;;;13.23;6.43;;;;;;;18.19;100.00;99821.13;8262021;28;20046;-48
2022/09/08 03:13:44;;;;;;;10.43;4.85;;;;;;;18.19;100.00;99821.13;8261634;28;20762;-48
2022/09/08 03:17:45;;;;;;;9.70;6.15;;;;;;;18.31;100.00;99804.94;8231503;28;20061;-52
2022/09/08 03:21:45;;;;;;;9.50;5.32;;;;;;;18.21;100.00;99819.03;8225759;28;20566;-48
2022/09/08 03:25:48;;;;;;;9.67;5.53;;;;;;;18.19;100.00;99821.13;8222264;28;20035;-50
2022/09/08 03:29:48;;;;;;;7.38;4.90;;;;;;;18.20;100.00;99817.34;8228835;28;20705;-48
2022/09/08 03:33:49;;;;;;;14.98;6.63;;;;;;;18.21;100.00;99815.47;8250066;28;20057;-49
2022/09/08 03:37:49;;;;;;;11.13;6.03;;;;;;;18.12;100.00;99814.81;8261770;28;20038;-49
2022/09/08 03:41:50;;;;;;;11.75;6.03;;;;;;;18.12;100.00;99809.34;8257140;28;20499;-50
2022/09/08 03:45:50;;;;;;;13.73;6.70;;;;;;;18.07;100.00;99814.56;8253443;28;20481;-51
2022/09/08 03:49:51;;;;;;;11.13;6.13;;;;;;;18.08;100.00;99815.44;8228102;28;20508;-48
2022/09/08 03:53:53;;;;;;;14.85;6.43;;;;;;;18.17;100.00;99806.00;8229313;28;20542;-49
2022/09/08 03:57:55;;;;;;;13.45;6.10;;;;;;;18.07;100.00;99808.25;8258557;28;20042;-48
2022/09/08 04:01:56;;;;;;;9.48;5.90;;;;;;;18.06;100.00;99804.69;8257124;28;20042;-49
2022/09/08 04:05:58;;;;;;;12.52;6.65;;;;;;;18.07;100.00;99811.84;8250170;28;20039;-49
2022/09/08 04:09:59;;;;;;;15.00;7.15;;;;;;;18.07;100.00;99806.38;8223150;28;20488;-51
2022/09/08 04:13:59;;;;;;;15.40;8.20;;;;;;;18.13;100.00;99794.59;8237767;28;20047;-48
2022/09/08 04:18:00;;;;;;;11.45;7.40;;;;;;;18.12;100.00;99798.41;8225752;28;20075;-50
2022/09/08 04:22:01;;;;;;;12.25;7.57;;;;;;;18.04;100.00;99784.91;8225585;28;20042;-50
2022/09/08 04:26:05;;;;;;;14.38;7.25;;;;;;;18.11;100.00;99788.47;8228053;28;20043;-49
2022/09/08 04:30:07;;;;;;;;;;;;;;;18.07;100.00;99795.44;8227193;28;20043;-49
2022/09/08 04:34:08;;;;;;;11.40;7.53;;;;;;;18.11;100.00;99791.22;8237328;28;20278;-50
2022/09/08 04:38:08;;;;;;;12.85;6.55;;;;;;;18.13;100.00;99794.59;8223786;28;20038;-49
2022/09/08 04:42:09;;;;;;;9.82;6.25;;;;;;;18.14;100.00;99790.00;8222224;28;20504;-50
2022/09/08 04:46:13;;;;;;;12.90;6.50;;;;;;;18.17;100.00;99793.13;8224076;28;21729;-52
2022/09/08 04:50:14;;;;;;;;;;;;;;;18.21;100.00;99796.31;8213720;28;20408;-49
2022/09/08 04:54:14;;;;;;;11.97;7.67;;;;;;;18.22;100.00;99797.97;8223711;28;19937;-48
2022/09/08 04:58:14;;;;;;;17.73;8.13;;;;;;;18.20;100.00;99800.94;8220379;28;20113;-49
2022/09/08 05:02:15;;;;;;;11.95;7.45;;;;;;;18.17;100.00;99803.25;8226265;28;20297;-52
2022/09/08 05:06:15;;;;;;;11.27;7.07;;;;;;;18.22;100.00;99819.88;8226472;28;20038;-51
2022/09/08 05:10:16;;;;;;;12.50;7.93;;;;;;;18.25;100.00;99814.00;8245092;28;20305;-49
2022/09/08 05:14:16;;;;;;;16.80;8.55;;;;;;;18.30;100.00;99828.72;8230557;28;20731;-51
2022/09/08 05:18:17;;;;;;;15.27;7.85;;;;;;;18.11;100.00;99813.09;8222021;28;20717;-49
2022/09/08 05:22:17;;;;;;;15.88;6.15;;;;;;;17.85;100.00;99829.44;8217031;28;20052;-49
2022/09/08 05:26:20;;;;;;;16.90;5.75;;;;;;;17.76;100.00;99835.28;8224056;28;20051;-51
2022/09/08 05:30:20;;;;;;;12.35;5.28;;;;;;;17.76;100.00;99829.81;8224199;28;20523;-48
2022/09/08 05:34:21;;;;;;;17.90;6.25;;;;;;;17.67;100.00;99815.47;8215596;28;20408;-50
2022/09/08 05:38:22;;;;;;;17.15;6.35;;;;;;;17.74;100.00;99821.81;8211724;28;20568;-49
2022/09/08 05:42:22;;;;;;;16.52;6.25;;;;;;;17.82;100.00;99812.59;8213948;28;20042;-49
2022/09/08 05:46:27;;;;;;;15.88;5.80;;;;;;;17.81;100.00;99809.00;8220618;28;20047;-50
2022/09/08 05:50:27;;;;;;;13.48;5.22;;;;;;;17.80;100.00;99809.19;8214164;28;20097;-49
2022/09/08 05:54:27;;;;;;;13.85;5.25;;;;;;;17.75;100.00;99823.47;8251405;28;20034;-50
2022/09/08 05:58:29;;;;;;;14.43;5.78;;;;;;;17.89;100.00;99841.66;8252304;28;20054;-52
2022/09/08 06:02:29;;;;;;;17.65;6.28;;;;;;;17.91;100.00;99855.13;8254059;28;20129;-52
2022/09/08 06:06:31;;;;;;;14.23;6.15;;;;;;;17.91;100.00;99855.97;8252947;28;20046;-49
2022/09/08 06:10:35;;;;;;;20.00;8.00;;;;;;;17.96;100.00;99839.78;8226910;28;20046;-50
2022/09/08 06:14:35;;;;;;;17.23;7.50;;;;;;;17.97;100.00;99837.91;8218689;28;20036;-52
2022/09/08 06:18:39;;;;;;;19.40;8.07;;;;;;;17.98;100.00;99834.94;8229068;28;20314;-52
2022/09/08 06:22:39;;;;;;;18.85;7.63;;;;;;;18.05;100.00;99829.53;8226235;28;20050;-50
2022/09/08 06:26:58;;;;;;;19.00;8.47;;;;;;;18.03;100.00;99840.66;8229257;28;20078;-50
2022/09/08 06:30:59;;;;;;;16.08;6.78;;;;;;;17.95;100.00;99840.84;8226248;28;20270;-51
2022/09/08 06:35:08;;;;;;;16.55;7.25;;;;;;;17.93;100.00;99842.91;8255579;28;20065;-49
2022/09/08 06:39:17;;;;;;;25.75;9.30;;;;;;;17.87;100.00;99848.38;8226515;28;20043;-51
2022/09/08 06:43:25;;;;;;;17.45;8.50;;;;;;;17.86;100.00;99853.00;8248441;28;20511;-49
2022/09/08 06:47:36;;;;;;;20.08;7.40;;;;;;;17.74;100.00;99865.56;8221853;28;20050;-49
2022/09/08 06:52:00;;;;;;;12.23;5.28;;;;;;;17.58;100.00;99865.88;8224717;28;20039;-50
2022/09/08 06:56:25;;;;;;;11.32;5.00;;;;;;;17.52;100.00;99866.69;8225333;28;20492;-49
2022/09/08 07:00:31;;;;;;;11.65;5.10;;;;;;;17.56;100.00;99868.81;8255665;28;20113;-48
2022/09/08 07:04:44;;;;;;;12.88;4.63;;;;;;;17.50;100.00;99874.25;8260087;28;20376;-50
2022/09/08 07:09:25;;;;;;;10.75;4.93;;;;;;;17.57;100.00;99880.63;8259947;28;20081;-49
2022/09/08 07:13:56;;;;;;;11.40;4.88;;;;;;;17.65;100.00;99872.22;8258033;28;20454;-48
2022/09/08 07:18:06;;;;;;;8.50;4.72;;;;;;;17.74;100.00;99875.63;8238055;28;20465;-51
2022/09/08 07:22:20;;;;;;;11.90;4.35;;;;;;;18.01;100.00;99864.63;8226746;28;20050;-52
2022/09/08 07:26:47;;;;;;;13.00;5.13;;;;;;;18.29;100.00;99868.09;8232009;28;20587;-48
2022/09/08 07:30:56;;;;;;;7.88;4.20;;;;;;;18.23;100.00;99879.00;8232860;28;20047;-49
2022/09/08 07:35:04;;;;;;;8.13;4.18;;;;;;;18.30;100.00;99880.72;8226157;28;20117;-50
2022/09/08 07:39:20;;;;;;;3.63;2.78;;;;;;;18.27;100.00;99883.88;8224478;28;20023;-49
2022/09/08 07:43:22;;;;;;;5.78;2.53;;;;;;;18.33;100.00;99883.06;8218305;28;20149;-49
2022/09/08 07:47:48;;;;;;;5.15;2.50;;;;;;;18.42;100.00;99881.84;8223879;28;20130;-48
2022/09/08 07:51:58;;;;;;;2.65;2.13;;;;;;;18.49;100.00;99877.25;8223349;28;20423;-49
2022/09/08 07:56:10;;;;;;;4.97;2.40;;;;;;;18.60;100.00;99884.84;8240567;28;20030;-50
2022/09/08 08:00:16;;;;;;;6.18;2.92;;;;;;;18.65;100.00;99878.75;8243098;28;20035;-49
2022/09/08 08:04:47;;;;;;;4.22;2.78;;;;;;;18.95;100.00;99883.66;8235430;28;20039;-48
2022/09/08 08:09:20;;;;;;;3.33;2.38;;;;;;;19.46;100.00;99881.13;8257732;28;20043;-49
2022/09/08 08:14:00;;;;;;;3.58;1.98;;;;;;;20.07;100.00;99884.34;8252247;28;20126;-51
2022/09/08 08:18:13;;;;;;;3.00;1.50;;;;;;;20.09;100.00;99893.19;8255312;28;20050;-48
2022/09/08 08:22:53;;;;;;;8.00;1.50;;;;;;;20.19;100.00;99899.13;8254019;28;20470;-49
2022/09/08 08:27:06;;;;;;;5.03;1.38;;;;;;;20.61;100.00;99892.97;8239324;28;20057;-48
2022/09/08 08:31:37;;;;;;;2.95;1.02;;;;;;;21.00;98.31;99903.75;8256802;28;20042;-48
2022/09/08 08:35:47;;;;;;;3.72;1.25;;;;;;;20.80;95.82;99903.00;8239796;28;20047;-49
2022/09/08 08:39:52;;;;;;;2.35;0.57;;;;;;;20.25;94.97;99909.22;8222904;28;20061;-48
2022/09/08 08:44:24;;;;;;;2.42;1.02;;;;;;;20.14;97.29;99918.13;8227449;28;20034;-49
2022/09/08 08:49:02;;;;;;;2.05;0.80;;;;;;;19.86;98.03;99920.28;8228181;28;20567;-49
2022/09/08 08:57:52;;;;;;;1.95;0.70;;;;;;;19.64;97.42;99927.91;8307033;27;20390;-47
2022/09/08 09:02:18;;;;;;;5.00;0.85;;;;;;;19.85;95.56;99924.09;8309534;28;20038;-49
2022/09/08 09:06:37;;;;;;;1.95;0.85;;;;;;;20.10;94.83;99923.16;8311876;28;20124;-48
2022/09/08 09:19:59;;;;;;;3.80;0.70;;;;;;;20.63;92.90;99935.66;8342060;28;20452;-48
2022/09/08 09:24:03;;;;;;;2.08;0.50;;;;;;;20.51;90.89;99931.06;8347408;28;20168;-48
2022/09/08 09:37:35;;;;;;;3.08;0.68;;;;;;;21.02;89.44;99931.84;8382629;27;20874;-49
2022/09/08 09:41:46;;;;;;;4.13;1.08;;;;;;;21.48;86.37;99924.09;8377282;28;20065;-49
2022/09/08 09:46:12;;;;;;;3.47;0.73;;;;;;;23.17;78.71;99922.03;8376802;28;20054;-48
2022/09/08 09:50:35;;;;;;;4.43;1.20;;;;;;;25.46;70.98;99923.75;8378950;28;20478;-47
2022/09/08 09:55:03;;;;;;;4.03;0.60;;;;;;;26.00;68.01;99930.47;8346890;28;20546;-48
2022/09/08 09:59:34;;;;;;;1.80;0.75;;;;;;;27.25;62.59;99928.44;8347496;28;20075;-49
2022/09/08 10:04:15;;;;;;;2.85;0.60;;;;;;;26.52;63.29;99913.16;8342732;28;20495;-48
2022/09/08 10:08:45;;;;;;;1.85;0.63;;;;;;;24.66;67.87;99916.72;8347324;28;20041;-47
2022/09/08 10:13:15;;;;;;;4.13;0.40;;;;;;;23.93;69.97;99921.97;8346449;28;20037;-48
2022/09/08 10:17:50;;;;;;;3.53;0.52;;;;;;;27.05;63.14;99901.31;8341665;28;20556;-49
2022/09/08 10:22:25;;;;;;;0.98;0.40;;;;;;;26.62;62.78;99913.31;8338574;28;20215;-47
2022/09/08 10:27:05;;;;;;;2.17;0.30;;;;;;;28.54;59.76;99916.63;8344943;28;20064;-50
2022/09/08 10:40:04;;;;;;;2.42;0.43;;;;;;;27.67;58.84;99904.38;8414986;27;20389;-47
2022/09/08 10:44:41;;;;;;;0.65;0.20;;;;;;;27.86;59.04;99897.31;8366469;28;20037;-48
2022/09/08 10:49:21;;;;;;;0.40;0.20;;;;;;;30.17;53.68;99893.94;8370594;28;20043;-47
2022/09/08 10:53:49;;;;;;;1.45;0.20;;;;;;;26.61;59.07;99889.44;8374350;28;20044;-50
2022/09/08 10:58:29;;;;;;;1.80;0.28;;;;;;;24.45;66.63;99898.00;8322086;28;20037;-47
2022/09/08 11:12:02;;;;;;;0.95;0.17;;;;;;;21.76;75.88;99916.22;8317651;27;20389;-48
2022/09/08 11:16:32;;;;;;;3.33;0.40;;;;;;;21.18;86.64;99912.06;8315067;28;20037;-49
2022/09/08 11:20:46;;;;;;;3.65;0.75;;;;;;;21.51;89.10;99912.63;8315106;28;20030;-48
2022/09/08 11:24:59;;;;;;;0.52;0.22;;;;;;;24.92;76.16;99910.59;8316145;28;20038;-50
2022/09/08 11:29:09;;;;;;;0.80;0.20;;;;;;;28.51;62.17;99906.03;8314650;28;20046;-52
2022/09/08 11:46:53;;;;;;;0.73;0.20;;;;;;;25.50;62.71;99890.88;8397466;27;20787;-49
2022/09/08 12:00:43;;;;;;;1.50;0.30;;;;;;;27.54;56.40;99874.28;8339807;27;20422;-48
2022/09/08 12:05:12;;;;;;;1.33;0.20;;;;;;;27.97;53.73;99876.81;8345439;28;20468;-48
2022/09/08 12:09:45;;;;;;;1.55;0.30;;;;;;;29.71;50.25;99872.03;8347270;28;20116;-48
2022/09/08 12:28:26;;;;;;;1.02;0.40;;;;;;;26.03;55.00;99872.63;8339010;27;20382;-48
2022/09/08 12:32:55;;;;;;;1.73;0.30;;;;;;;24.97;58.64;99858.13;8326591;28;20130;-52
2022/09/08 12:37:12;;;;;;;3.10;0.35;;;;;;;24.81;58.97;99859.78;8332633;28;20046;-49
2022/09/08 12:41:28;;;;;;;1.70;0.35;;;;;;;24.58;58.16;99847.97;8335229;28;20098;-50
2022/09/08 12:45:45;;;;;;;1.65;0.30;;;;;;;24.68;58.61;99849.03;8338065;28;20025;-49
2022/09/08 12:50:06;;;;;;;3.08;0.40;;;;;;;24.53;59.37;99839.56;8343669;28;20496;-47
2022/09/08 12:54:46;;;;;;;0.50;0.13;;;;;;;24.62;59.27;99855.53;8342815;28;20022;-47
2022/09/08 12:59:26;;;;;;;1.52;0.43;;;;;;;24.43;59.09;99850.44;8340984;28;20087;-48
2022/09/08 13:03:32;;;;;;;2.55;0.45;;;;;;;24.45;58.92;99853.78;8342066;28;20745;-48
2022/09/08 13:07:57;;;;;;;1.30;0.50;;;;;;;24.19;59.39;99859.88;8339189;28;20151;-47
2022/09/08 13:16:24;;;;;;;2.28;0.25;;;;;;;24.54;59.48;99858.69;8409370;27;20403;-48
2022/09/08 13:20:50;;;;;;;2.45;0.40;;;;;;;24.00;59.79;99858.38;8385258;28;20418;-49
2022/09/08 13:25:05;;;;;;;1.67;0.50;;;;;;;24.01;61.12;99854.53;8384050;28;20037;-49
2022/09/08 13:29:29;;;;;;;1.02;0.43;;;;;;;23.71;61.64;99862.94;8381575;28;20036;-48
2022/09/08 13:42:45;;;;;;;2.80;0.40;;;;;;;24.69;59.11;99872.81;8389083;27;20365;-47
2022/09/08 13:47:19;;;;;;;3.75;0.40;;;;;;;24.78;58.06;99870.50;8376929;28;20044;-49
2022/09/08 13:56:15;;;;;;;3.42;0.60;;;;;;;24.15;58.85;99864.22;8303793;28;20368;-48
2022/09/08 14:00:17;;;;;;;1.23;0.40;;;;;;;24.01;59.81;99857.28;8224024;28;20065;-49
2022/09/08 14:04:28;;;;;;;3.53;0.55;;;;;;;24.18;61.03;99852.69;8231723;28;20093;-48
2022/09/08 14:08:38;;;;;;;3.00;0.50;;;;;;;23.82;59.99;99847.44;8263408;28;20117;-47
2022/09/08 14:12:50;;;;;;;3.35;0.60;;;;;;;23.95;59.24;99847.22;8269679;28;20344;-47
2022/09/08 14:17:01;;;;;;;2.97;0.55;;;;;;;23.75;61.46;99846.75;8274177;28;20293;-50
2022/09/08 14:21:28;;;;;;;2.53;0.40;;;;;;;23.84;61.62;99856.31;8280432;28;20042;-52
2022/09/08 14:25:33;;;;;;;0.75;0.30;;;;;;;23.73;61.02;99852.50;8269514;28;20442;-48
2022/09/08 14:33:51;;;;;;;6.50;0.75;;;;;;;24.25;60.53;99848.72;8386133;27;20935;-47
2022/09/08 14:38:31;;;;;;;4.10;0.40;;;;;;;24.32;60.07;99845.78;8376411;28;20516;-50
2022/09/08 14:42:45;;;;;;;1.67;0.30;;;;;;;24.22;61.19;99834.53;8373214;28;20127;-49
2022/09/08 14:46:52;;;;;;;1.58;0.30;;;;;;;23.79;61.89;99843.25;8375480;28;20131;-49
2022/09/08 14:51:21;;;;;;;2.33;0.60;;;;;;;23.92;60.94;99847.66;8361415;28;20043;-51
2022/09/08 14:56:01;;;;;;;5.32;0.50;;;;;;;23.86;62.90;99843.13;8355426;28;20552;-50
2022/09/08 15:04:25;;;;;;;3.13;0.40;;;;;;;23.79;61.84;99839.66;8315338;27;20389;-47
2022/09/08 15:08:31;;;;;;;1.67;0.35;;;;;;;23.70;62.40;99843.88;8330199;28;20266;-47
2022/09/08 15:12:56;;;;;;;2.88;0.57;;;;;;;23.81;62.58;99845.75;8323624;28;20045;-47
2022/09/08 15:21:27;;;;;;;3.35;0.40;;;;;;;23.49;62.68;99852.75;8381711;27;20920;-47
2022/09/08 15:30:10;;;;;;;1.45;0.30;;;;;;;23.63;63.63;99849.50;8320763;28;20860;-49
2022/09/08 15:34:21;;;;;;;2.42;0.40;;;;;;;23.71;63.67;99842.78;8294126;28;20434;-48
2022/09/08 15:38:45;;;;;;;2.90;0.52;;;;;;;23.47;64.20;99832.81;8283753;28;20121;-48
2022/09/08 15:43:08;;;;;;;3.20;0.50;;;;;;;23.41;64.42;99834.63;8306750;28;20046;-51
2022/09/08 15:47:37;;;;;;;3.00;0.40;;;;;;;23.55;64.38;99832.47;8301479;28;20614;-48
2022/09/08 15:51:48;;;;;;;2.08;0.40;;;;;;;23.60;63.59;99827.09;8309966;28;20038;-48
2022/09/08 15:56:05;;;;;;;2.28;0.35;;;;;;;23.47;63.06;99843.84;8309186;28;20503;-48
2022/09/08 16:00:32;;;;;;;1.15;0.32;;;;;;;23.43;63.88;99846.28;8304421;28;20488;-47
2022/09/08 16:05:11;;;;;;;2.00;0.40;;;;;;;23.46;63.41;99833.91;8306483;28;20037;-49
2022/09/08 16:09:15;;;;;;;2.28;0.43;;;;;;;23.26;62.51;99831.50;8311184;28;20049;-48
2022/09/08 16:13:24;;;;;;;2.13;0.30;;;;;;;23.13;62.51;99835.31;8312662;28;20517;-50
2022/09/08 16:17:25;;;;;;;3.78;0.55;;;;;;;22.93;63.90;99834.78;8309926;28;20648;-49
2022/09/08 16:21:26;;;;;;;1.77;0.45;;;;;;;22.78;65.08;99828.88;8312789;28;20404;-49
2022/09/08 16:25:41;;;;;;;2.47;0.40;;;;;;;22.70;65.76;99837.50;8312932;28;20501;-48
2022/09/08 16:30:21;;;;;;;1.85;0.30;;;;;;;22.54;66.02;99831.81;8313169;28;20044;-52
2022/09/08 16:34:31;;;;;;;1.02;0.43;;;;;;;22.63;65.63;99831.25;8299158;28;20562;-52
2022/09/08 16:39:01;;;;;;;1.63;0.20;;;;;;;22.67;65.94;99832.47;8303449;28;20069;-51
2022/09/08 16:43:10;;;;;;;2.15;0.30;;;;;;;22.64;65.15;99827.44;8289990;28;20045;-48
2022/09/08 16:55:51;;;;;;;3.00;0.38;;;;;;;22.32;66.66;99841.66;8330893;27;20380;-47
2022/09/08 17:00:13;;;;;;;1.75;0.38;;;;;;;22.25;66.36;99850.00;8332203;28;20063;-48
2022/09/08 17:04:30;;;;;;;2.35;0.30;;;;;;;22.27;66.47;99845.09;8323912;28;20045;-48
2022/09/08 17:12:44;;;;;;;3.60;0.55;;;;;;;22.30;68.05;99836.38;8286831;27;20397;-47
2022/09/08 17:17:24;;;;;;;4.93;0.70;;;;;;;22.25;67.67;99838.13;8295713;28;20041;-47
2022/09/08 17:26:27;;;;;;;1.98;0.45;;;;;;;22.00;69.45;99840.16;8287608;28;20517;-47
2022/09/08 17:30:54;;;;;;;1.15;0.30;;;;;;;21.79;70.99;99833.19;8274952;28;20050;-48
2022/09/08 17:34:55;;;;;;;3.80;0.68;;;;;;;21.73;70.54;99844.25;8266734;28;20057;-48
2022/09/08 17:38:57;;;;;;;1.48;0.57;;;;;;;21.58;71.72;99841.88;8266522;28;20038;-47
2022/09/08 17:43:06;;;;;;;1.73;0.40;;;;;;;21.54;72.04;99846.16;8250254;28;20057;-47
2022/09/08 17:47:36;;;;;;;2.70;0.50;;;;;;;21.40;73.33;99839.09;8236637;28;20038;-48
2022/09/08 17:52:01;;;;;;;1.33;0.47;;;;;;;21.18;74.00;99835.94;8261319;28;20512;-53
2022/09/08 17:56:43;;;;;;;2.20;0.40;;;;;;;21.08;75.19;99834.75;8263324;28;20092;-50
2022/09/08 18:00:59;;;;;;;3.57;0.50;;;;;;;20.91;76.30;99836.34;8230544;28;20125;-51
2022/09/08 18:09:59;;;;;;;3.33;0.68;;;;;;;20.79;76.92;99844.47;8247226;28;20408;-47
2022/09/08 18:14:11;;;;;;;2.22;0.50;;;;;;;20.77;75.45;99837.50;8267124;28;20168;-50
2022/09/08 18:18:28;;;;;;;2.28;0.93;;;;;;;20.83;75.32;99836.63;8277443;28;20053;-50
2022/09/08 18:27:41;;;;;;;3.42;1.00;;;;;;;20.77;76.27;99848.50;8374096;27;20392;-47
2022/09/08 18:32:21;;;;;;;3.15;0.57;;;;;;;20.68;76.50;99844.34;8331434;28;20095;-48
2022/09/08 18:36:58;;;;;;;2.47;0.70;;;;;;;20.60;77.38;99848.19;8341886;28;20045;-48
2022/09/08 18:41:14;;;;;;;3.17;0.73;;;;;;;20.57;77.02;99856.03;8353365;28;20587;-47
2022/09/08 18:49:56;;;;;;;5.40;0.80;;;;;;;20.39;78.06;99855.91;8364976;27;20938;-46
2022/09/08 18:54:36;;;;;;;4.57;0.70;;;;;;;20.26;79.01;99866.97;8336925;28;20428;-47
2022/09/08 19:03:23;;;;;;;4.60;0.70;;;;;;;20.06;80.85;99863.47;8322326;28;20363;-47
2022/09/08 19:07:33;;;;;;;4.90;0.90;;;;;;;20.00;81.38;99867.06;8281297;28;20068;-51
2022/09/08 19:11:38;;;;;;;4.80;0.50;;;;;;;19.90;81.94;99870.25;8314343;28;20042;-47
2022/09/08 19:16:06;;;;;;;4.80;0.70;;;;;;;19.85;82.65;99863.75;8307918;28;20041;-48
2022/09/08 19:20:21;;;;;;;5.10;0.60;;;;;;;19.67;84.01;99871.81;8300042;28;20129;-47
2022/09/08 19:28:36;;;;;;;5.35;0.77;;;;;;;19.64;84.54;99877.72;8300398;28;20437;-49
2022/09/08 19:32:52;;;;;;;2.90;0.70;;;;;;;19.65;84.75;99873.91;8278727;28;20034;-47
2022/09/08 19:37:00;;;;;;;7.03;1.00;;;;;;;19.52;85.27;99867.41;8293821;28;20111;-47
2022/09/08 19:41:11;;;;;;;4.20;1.08;;;;;;;19.52;85.67;99872.88;8301917;28;20566;-47
2022/09/08 19:45:51;;;;;;;3.13;0.75;;;;;;;19.42;86.25;99869.75;8304147;28;20442;-47
2022/09/08 19:50:17;;;;;;;2.15;0.75;;;;;;;19.33;87.27;99873.75;8296313;28;20045;-47
2022/09/08 19:54:49;;;;;;;4.80;0.80;;;;;;;19.31;87.29;99878.59;8286235;28;20042;-48
2022/09/08 19:59:30;;;;;;;3.53;0.90;;;;;;;19.26;87.96;99881.16;8268170;28;20565;-47
2022/09/08 20:03:33;;;;;;;3.35;0.70;;;;;;;19.19;88.52;99884.91;8305399;28;20044;-49
2022/09/08 20:07:51;;;;;;;8.00;1.63;;;;;;;19.16;88.69;99888.91;8304058;28;20037;-48
2022/09/08 20:12:14;;;;;;;3.22;0.70;;;;;;;19.10;89.49;99892.50;8302191;28;20082;-48
2022/09/08 20:16:19;;;;;;;4.57;0.70;;;;;;;19.03;89.96;99880.69;8301424;28;20053;-50
2022/09/08 20:20:32;;;;;;;5.18;0.95;;;;;;;19.01;90.03;99881.97;8286768;28;20140;-49
2022/09/08 20:25:00;;;;;;;6.30;1.25;;;;;;;18.83;91.89;99879.84;8277603;28;20041;-47
2022/09/08 20:29:30;;;;;;;3.65;0.82;;;;;;;18.63;93.82;99876.22;8287459;28;20112;-48
2022/09/08 20:33:42;;;;;;;3.67;1.02;;;;;;;18.63;94.02;99883.63;8286829;28;20447;-47
2022/09/08 20:42:41;;;;;;;4.25;0.73;;;;;;;18.63;93.67;99884.44;8303501;27;1320222;-47
2022/09/08 20:47:11;;;;;;;5.50;1.30;;;;;;;18.70;93.66;99873.50;8335188;28;20038;-47
2022/09/08 20:51:23;;;;;;;3.20;0.88;;;;;;;18.74;93.60;99870.13;8327659;28;20495;-47
2022/09/08 20:55:30;;;;;;;4.25;0.98;;;;;;;18.77;94.12;99877.94;8318789;28;20030;-48
2022/09/08 20:59:35;;;;;;;4.32;1.00;;;;;;;18.83;94.01;99874.38;8332142;28;20582;-48
2022/09/08 21:03:41;;;;;;;5.57;0.90;;;;;;;18.85;94.49;99874.97;8329209;28;20660;-49
2022/09/08 21:07:44;;;;;;;7.63;0.80;;;;;;;18.85;94.60;99871.41;8334689;28;20495;-48
2022/09/08 21:11:46;;;;;;;5.03;1.20;;;;;;;18.77;95.60;99856.03;8329688;28;20124;-47
2022/09/08 21:16:03;;;;;;;3.83;0.90;;;;;;;18.79;96.17;99867.59;8333950;28;20482;-47
2022/09/08 21:20:27;;;;;;;3.53;1.08;;;;;;;18.79;96.96;99866.78;8323172;28;20117;-47
2022/09/08 21:24:54;;;;;;;6.25;0.80;;;;;;;18.79;97.17;99864.84;8338984;28;20049;-47
2022/09/08 21:33:54;;;;;;;4.72;1.10;;;;;;;18.86;98.30;99863.00;8404907;27;20402;-46
2022/09/08 21:38:19;;;;;;;4.28;1.10;;;;;;;18.84;98.53;99862.34;8394012;27;20067;-46
2022/09/08 21:42:22;;;;;;;5.03;1.02;;;;;;;18.90;97.73;99853.28;8383282;28;20036;-47
2022/09/08 21:46:32;;;;;;;2.88;1.05;;;;;;;18.93;97.99;99862.97;8379249;28;20036;-46
2022/09/08 21:50:56;;;;;;;4.07;0.70;;;;;;;19.00;98.35;99859.19;8392721;27;20094;-47
2022/09/08 21:55:20;;;;;;;7.40;1.02;;;;;;;19.15;96.04;99856.22;8395869;27;20076;-49
2022/09/08 21:59:23;;;;;;;7.72;1.10;;;;;;;19.49;91.69;99870.56;8391240;28;20081;-47
2022/09/08 22:03:31;;;;;;;4.30;1.10;;;;;;;19.76;89.79;99870.53;8413988;28;20039;-47
2022/09/08 22:07:31;;;;;;;4.45;0.80;;;;;;;19.84;88.78;99867.53;8400600;28;20040;-47
2022/09/08 22:11:39;;;;;;;3.63;0.98;;;;;;;19.90;86.53;99877.63;8374503;28;20040;-50
2022/09/08 22:15:42;;;;;;;2.13;0.50;;;;;;;19.98;84.86;99882.91;8362227;28;20388;-47
2022/09/08 22:19:48;;;;;;;7.40;1.02;;;;;;;20.06;84.04;99880.75;8372533;28;20198;-47
2022/09/08 22:23:55;;;;;;;4.63;0.50;;;;;;;20.06;83.49;99875.25;8381543;28;20033;-46
2022/09/08 22:28:06;;;;;;;3.10;0.45;;;;;;;20.04;84.36;99873.81;8387411;28;20528;-46
2022/09/08 22:32:33;;;;;;;5.47;0.63;;;;;;;19.94;84.97;99878.91;8392874;28;20066;-47
2022/09/08 22:36:46;;;;;;;2.58;0.55;;;;;;;19.79;88.38;99868.16;8369457;28;20037;-47